Time;durP1;ratioP1;P1;durP2;ratioP2;P2;SDS_P1;SDS_P2;PMS_P1;PMS_P2;Temp;Humidity;BMP_temperature;BMP_pressure;BME280_temperature;BME280_humidity;BME280_pressure;Samples;Min_cycle;Max_cycle;Signal;HPM_P1;HPM_P2
2021/12/12 00:01:06;;;;;;;12.77;3.40;;;;;;;12.37;48.31;101941.59;4940218;29;20123;-59
2021/12/12 00:03:40;;;;;;;13.43;3.75;;;;;;;12.37;48.13;101942.41;4936816;28;20042;-58
2021/12/12 00:06:12;;;;;;;8.10;3.50;;;;;;;12.26;48.58;101927.09;4939946;29;20031;-58
2021/12/12 00:08:40;;;;;;;8.68;3.53;;;;;;;12.40;49.09;101944.88;4939899;28;20054;-59
2021/12/12 00:11:16;;;;;;;10.48;4.05;;;;;;;12.44;48.96;101950.88;4938368;29;20053;-59
2021/12/12 00:13:48;;;;;;;9.15;4.75;;;;;;;12.44;49.26;101946.38;4939788;29;20020;-59
2021/12/12 00:16:14;;;;;;;12.95;4.18;;;;;;;12.43;48.44;101943.78;4938676;29;20047;-58
2021/12/12 00:18:40;;;;;;;12.75;3.47;;;;;;;12.43;48.36;101935.72;4938554;29;20055;-58
2021/12/12 00:21:08;;;;;;;9.93;4.35;;;;;;;12.43;48.61;101933.03;4938441;29;20036;-59
2021/12/12 00:23:34;;;;;;;9.38;3.65;;;;;;;12.40;49.10;101939.50;4938353;29;20032;-58
2021/12/12 00:26:00;;;;;;;12.57;3.38;;;;;;;12.39;49.30;101936.94;4939690;29;20043;-59
2021/12/12 00:28:27;;;;;;;8.85;3.15;;;;;;;12.39;48.56;101936.94;4939889;28;20038;-59
2021/12/12 00:30:57;;;;;;;8.20;3.22;;;;;;;12.41;48.40;101925.09;4937977;29;20453;-59
2021/12/12 00:33:23;;;;;;;13.30;3.92;;;;;;;12.40;48.43;101922.50;4939517;29;20044;-58
2021/12/12 00:35:50;;;;;;;10.95;4.00;;;;;;;12.45;48.25;101928.44;4939157;28;20031;-59
2021/12/12 00:38:26;;;;;;;13.10;3.28;;;;;;;12.47;48.44;101929.16;4939478;29;20094;-59
2021/12/12 00:40:54;;;;;;;17.15;3.88;;;;;;;12.49;49.01;101929.91;4930556;28;20376;-58
2021/12/12 00:43:27;;;;;;;12.23;3.42;;;;;;;12.50;48.86;101931.63;4929292;29;20240;-59
2021/12/12 00:45:54;;;;;;;9.57;3.65;;;;;;;12.49;48.79;101921.84;4928780;29;20493;-58
2021/12/12 00:48:20;;;;;;;11.27;3.28;;;;;;;12.49;48.40;101919.16;4927189;29;20119;-59
2021/12/12 00:50:45;;;;;;;10.32;3.58;;;;;;;12.53;49.15;101920.66;4928865;29;20138;-58
2021/12/12 00:53:12;;;;;;;13.43;3.72;;;;;;;12.56;49.02;101928.47;4928307;29;20461;-59
2021/12/12 00:55:39;;;;;;;11.32;3.40;;;;;;;12.59;49.00;101917.50;4926542;29;20381;-58
2021/12/12 00:58:10;;;;;;;8.15;3.42;;;;;;;12.63;48.40;101905.53;4927751;29;20031;-59
2021/12/12 01:00:41;;;;;;;12.10;3.42;;;;;;;12.61;48.91;101904.81;4927503;29;20031;-59
2021/12/12 01:03:09;;;;;;;13.07;4.18;;;;;;;12.62;48.53;101917.25;4927900;29;20027;-59
2021/12/12 01:05:35;;;;;;;10.05;3.28;;;;;;;12.61;49.23;101902.13;4927327;29;20505;-59
2021/12/12 01:08:02;;;;;;;9.40;2.90;;;;;;;12.64;48.78;101899.19;4926409;29;20486;-58
2021/12/12 01:10:32;;;;;;;16.35;4.10;;;;;;;12.61;48.98;101894.91;4926964;29;20024;-59
2021/12/12 01:12:59;;;;;;;6.10;4.28;;;;;;;12.61;49.23;101899.44;4927041;29;20032;-59
2021/12/12 01:15:51;;;;;;;8.75;3.58;;;;;;;12.60;49.40;101898.56;4932606;29;20042;-60
2021/12/12 01:18:30;;;;;;;14.15;3.53;;;;;;;12.61;49.34;101884.16;4939725;29;20055;-59
2021/12/12 01:21:10;;;;;;;9.48;3.13;;;;;;;12.63;48.69;101890.28;4945712;29;20050;-58
2021/12/12 01:23:55;;;;;;;12.32;3.65;;;;;;;12.64;49.35;101889.31;4948135;29;20120;-58
2021/12/12 01:26:20;;;;;;;9.57;3.28;;;;;;;12.64;48.90;101888.44;4957301;29;20090;-59
2021/12/12 01:28:53;;;;;;;9.02;2.53;;;;;;;12.71;49.08;101887.00;4957820;29;20039;-60
2021/12/12 01:31:26;;;;;;;7.50;2.63;;;;;;;12.71;48.39;101881.63;4957689;29;20059;-59
2021/12/12 01:34:08;;;;;;;8.60;2.97;;;;;;;12.74;48.70;101884.06;4957508;29;20086;-59
2021/12/12 01:37:34;;;;;;;14.05;3.10;;;;;;;12.75;49.35;101880.41;4940619;29;20023;-59
2021/12/12 01:39:24;;;;;;;12.13;2.75;;;;;;;12.75;48.53;101875.03;4947007;29;20511;-59
2021/12/12 01:41:55;;;;;;;11.00;3.08;;;;;;;12.76;49.08;101874.03;4957399;29;20031;-59
2021/12/12 01:44:31;;;;;;;7.05;2.53;;;;;;;12.79;48.28;101868.44;4957509;29;20035;-58
2021/12/12 01:47:04;;;;;;;6.43;3.70;;;;;;;12.80;48.59;101887.16;4956961;29;20027;-59
2021/12/12 01:49:30;;;;;;;12.80;2.83;;;;;;;12.79;49.13;101881.88;4957278;29;20485;-58
2021/12/12 01:51:57;;;;;;;9.48;2.85;;;;;;;12.80;48.51;101878.22;4956987;29;20485;-59
2021/12/12 01:54:27;;;;;;;10.85;3.45;;;;;;;12.81;48.20;101874.56;4939786;29;20105;-59
2021/12/12 01:56:58;;;;;;;4.57;2.63;;;;;;;12.80;48.54;101886.28;4956631;29;20035;-59
2021/12/12 01:59:28;;;;;;;10.90;3.20;;;;;;;12.81;48.60;101891.53;4957038;29;20426;-58
2021/12/12 02:02:06;;;;;;;14.65;3.40;;;;;;;12.86;49.69;101885.81;4957173;29;20027;-58
2021/12/12 02:04:36;;;;;;;8.55;2.80;;;;;;;12.89;48.53;101888.28;4956779;29;20019;-59
2021/12/12 02:07:03;;;;;;;11.98;3.78;;;;;;;12.89;48.79;101872.16;4939391;29;20035;-59
2021/12/12 02:09:29;;;;;;;7.22;3.33;;;;;;;12.70;49.02;101842.28;4956241;29;20033;-58
2021/12/12 02:11:57;;;;;;;8.70;2.65;;;;;;;12.92;48.77;101868.38;4939701;29;20039;-59
2021/12/12 02:14:24;;;;;;;7.22;2.80;;;;;;;12.91;49.39;101859.44;4956936;29;20023;-59
2021/12/12 02:16:53;;;;;;;13.02;2.03;;;;;;;12.94;49.02;101867.28;4936355;29;20139;-58
2021/12/12 02:19:30;;;;;;;5.43;2.03;;;;;;;12.95;48.99;101871.69;4936639;29;20111;-60
2021/12/12 02:35:06;;;;;;;11.90;2.53;;;;;;;13.00;48.83;101858.72;4937727;29;20111;-59
2021/12/12 02:35:54;;;;;;;9.43;2.70;;;;;;;13.00;48.97;101855.19;4937629;29;20265;-59
2021/12/12 02:38:00;;;;;;;5.28;3.00;;;;;;;12.99;48.83;101845.38;4936295;28;20039;-59
2021/12/12 02:40:27;;;;;;;13.30;3.03;;;;;;;12.99;48.95;101857.00;4937307;29;20433;-58
2021/12/12 02:42:53;;;;;;;6.30;2.28;;;;;;;12.99;48.47;101848.06;4937485;29;20102;-59
2021/12/12 02:45:20;;;;;;;7.38;2.17;;;;;;;12.99;48.75;101858.81;4937045;29;20043;-59
2021/12/12 02:47:54;;;;;;;5.38;2.55;;;;;;;12.98;49.09;101852.59;4936092;28;20046;-59
2021/12/12 02:50:24;;;;;;;10.63;2.65;;;;;;;12.99;49.32;101867.75;4937408;28;20039;-58
2021/12/12 02:52:54;;;;;;;4.78;2.50;;;;;;;12.99;48.69;101851.63;4937031;29;20035;-58
2021/12/12 02:55:27;;;;;;;4.60;2.13;;;;;;;12.99;49.16;101850.75;4937259;29;20032;-59
2021/12/12 02:57:53;;;;;;;;;;;;;;;13.00;49.01;101847.97;4937670;29;20066;-58
2021/12/12 03:00:22;;;;;;;12.15;2.72;;;;;;;13.01;48.57;101852.34;4937068;29;19957;-59
2021/12/12 03:02:48;;;;;;;11.40;2.60;;;;;;;13.02;48.79;101856.75;4937120;29;20066;-59
2021/12/12 03:05:17;;;;;;;4.07;2.08;;;;;;;13.03;49.27;101853.13;4936056;29;20028;-58
2021/12/12 03:07:44;;;;;;;5.13;2.08;;;;;;;13.04;49.02;101846.72;4937143;28;20111;-58
2021/12/12 03:10:13;;;;;;;11.07;3.00;;;;;;;13.03;48.93;101855.81;4937001;29;20034;-59
2021/12/12 03:12:41;;;;;;;10.00;2.20;;;;;;;13.02;49.36;101856.75;4936991;29;20086;-58
2021/12/12 03:15:12;;;;;;;5.03;2.33;;;;;;;13.01;48.59;101849.66;4936783;29;20023;-58
2021/12/12 03:17:39;;;;;;;10.88;2.50;;;;;;;13.01;49.37;101855.03;4954174;29;20075;-59
2021/12/12 03:20:12;;;;;;;4.95;1.98;;;;;;;13.01;48.51;101846.97;4958268;28;20035;-58
2021/12/12 03:22:38;;;;;;;2.80;2.00;;;;;;;12.97;48.99;101842.81;4959910;29;20024;-58
2021/12/12 03:25:04;;;;;;;8.23;2.72;;;;;;;12.96;49.27;101851.84;4959976;29;20031;-58
2021/12/12 03:27:29;;;;;;;6.80;2.40;;;;;;;12.99;49.10;101850.75;4959670;29;20031;-58
2021/12/12 03:29:55;;;;;;;12.13;2.45;;;;;;;12.94;49.02;101831.44;4959786;29;20038;-59
2021/12/12 03:32:22;;;;;;;8.60;2.35;;;;;;;12.99;49.43;101846.25;4959710;29;20036;-59
2021/12/12 03:34:53;;;;;;;10.40;2.25;;;;;;;13.00;48.80;101847.97;4959838;29;20039;-58
2021/12/12 03:37:21;;;;;;;8.93;3.08;;;;;;;13.00;49.03;101842.59;4959493;29;20031;-58
2021/12/12 03:39:49;;;;;;;7.32;2.42;;;;;;;12.99;48.83;101840.88;4959349;29;20031;-58
2021/12/12 03:42:19;;;;;;;7.78;2.33;;;;;;;12.98;49.22;101849.06;4942566;29;20027;-59
2021/12/12 03:44:46;;;;;;;5.15;2.45;;;;;;;12.98;48.84;101844.53;4959524;29;20396;-58
2021/12/12 03:47:16;;;;;;;10.73;2.17;;;;;;;12.98;48.93;101835.63;4959473;29;20031;-59
2021/12/12 03:49:42;;;;;;;8.82;2.13;;;;;;;12.98;48.81;101835.63;4942613;29;20113;-58
2021/12/12 03:52:11;;;;;;;8.13;2.45;;;;;;;12.97;48.76;101832.06;4959460;29;20110;-58
2021/12/12 03:54:37;;;;;;;8.77;2.47;;;;;;;12.95;49.02;101820.59;4959796;29;20086;-59
2021/12/12 03:57:03;;;;;;;13.23;3.05;;;;;;;12.92;50.02;101818.13;4959130;29;20062;-59
2021/12/12 03:59:28;;;;;;;9.70;2.78;;;;;;;12.91;49.66;101837.91;4959286;29;20103;-58
2021/12/12 04:01:54;;;;;;;9.15;2.58;;;;;;;12.89;49.96;101834.50;4959192;29;20035;-58
2021/12/12 04:04:25;;;;;;;5.20;2.20;;;;;;;12.89;50.10;101839.88;4959302;29;20058;-59
2021/12/12 04:06:51;;;;;;;7.30;2.25;;;;;;;12.84;50.45;101829.47;4941919;29;20396;-58
2021/12/12 04:09:17;;;;;;;7.35;3.15;;;;;;;12.85;50.60;101835.69;4958978;29;20035;-58
2021/12/12 04:11:46;;;;;;;8.95;2.78;;;;;;;12.81;50.46;101823.50;4958550;29;20034;-59
2021/12/12 04:14:13;;;;;;;7.43;2.38;;;;;;;12.80;50.60;101824.44;4958789;29;20121;-59
2021/12/12 04:16:40;;;;;;;9.70;2.65;;;;;;;12.80;50.37;101824.44;4938577;29;20523;-59
2021/12/12 04:19:07;;;;;;;6.53;2.13;;;;;;;12.79;49.73;101811.97;4939918;29;20031;-59
2021/12/12 04:21:33;;;;;;;10.18;2.22;;;;;;;12.79;49.76;101823.59;4939795;29;20071;-59
2021/12/12 04:23:59;;;;;;;6.25;2.03;;;;;;;12.81;50.26;101820.81;4939515;29;20023;-58
2021/12/12 04:26:34;;;;;;;7.20;2.97;;;;;;;12.81;50.44;101821.63;4939591;29;20385;-59
2021/12/12 04:29:18;;;;;;;3.38;1.70;;;;;;;12.80;49.85;101814.56;4939567;29;20119;-58
2021/12/12 04:31:48;;;;;;;7.95;1.95;;;;;;;12.78;49.93;101818.34;4939302;29;20171;-59
2021/12/12 04:34:14;;;;;;;3.85;1.63;;;;;;;12.77;50.49;101805.88;4939737;29;20035;-58
2021/12/12 04:36:43;;;;;;;5.57;2.05;;;;;;;12.77;50.19;101817.50;4939481;29;20163;-59
2021/12/12 04:39:16;;;;;;;13.52;2.55;;;;;;;12.77;50.05;101816.63;4939376;28;20111;-58
2021/12/12 04:41:43;;;;;;;2.63;1.60;;;;;;;12.80;51.06;101827.16;4939589;29;20068;-59
2021/12/12 04:44:09;;;;;;;7.57;2.40;;;;;;;12.80;51.33;101819.94;4939337;29;20055;-59
2021/12/12 04:49:56;;;;;;;11.00;1.90;;;;;;;12.83;51.01;101834.97;4938150;29;20456;-59
2021/12/12 04:52:35;;;;;;;6.55;2.55;;;;;;;12.83;50.50;101824.22;4938556;29;20028;-58
2021/12/12 04:55:20;;;;;;;3.22;1.60;;;;;;;12.88;50.21;101832.78;4939754;29;20062;-59
2021/12/12 04:57:56;;;;;;;17.27;3.85;;;;;;;12.88;50.62;101831.91;4937891;29;20030;-59
2021/12/12 05:00:31;;;;;;;7.60;1.88;;;;;;;12.88;50.47;101831.91;4937899;29;20024;-59
2021/12/12 05:03:02;;;;;;;6.60;1.83;;;;;;;12.91;50.51;101839.75;4937913;29;20028;-58
2021/12/12 05:05:34;;;;;;;6.75;1.85;;;;;;;12.90;50.68;101836.19;4938268;29;20027;-58
2021/12/12 05:08:08;;;;;;;6.57;2.00;;;;;;;12.91;50.63;101837.91;4937614;29;20441;-59
2021/12/12 05:10:42;;;;;;;4.35;1.75;;;;;;;12.92;51.24;101836.09;4937953;29;20551;-58
2021/12/12 05:13:13;;;;;;;7.00;1.95;;;;;;;12.92;51.05;101826.19;4937562;28;20118;-58
2021/12/12 05:16:02;;;;;;;6.65;2.70;;;;;;;12.89;50.62;101829.13;4937645;29;20087;-60
2021/12/12 05:18:31;;;;;;;9.15;2.53;;;;;;;12.94;51.41;101831.44;4919044;29;20056;-59
2021/12/12 05:21:04;;;;;;;4.75;2.00;;;;;;;12.95;50.50;101835.84;4934113;29;20024;-59
2021/12/12 05:23:31;;;;;;;7.63;2.08;;;;;;;12.95;51.76;101825.97;4934141;29;20449;-59
2021/12/12 05:26:09;;;;;;;11.07;2.63;;;;;;;12.95;51.10;101828.66;4934357;29;20036;-59
2021/12/12 05:28:40;;;;;;;10.85;2.03;;;;;;;12.96;51.56;101830.34;4918558;29;20154;-59
2021/12/12 05:31:07;;;;;;;15.25;2.00;;;;;;;12.98;51.30;101823.00;4934346;29;20024;-59
2021/12/12 05:33:34;;;;;;;6.53;2.45;;;;;;;13.01;51.39;101822.75;4919672;29;20020;-59
2021/12/12 05:35:59;;;;;;;8.45;2.08;;;;;;;13.01;50.59;101828.16;4934106;29;20058;-59
2021/12/12 05:38:26;;;;;;;9.30;1.80;;;;;;;13.01;51.24;101833.53;4918387;29;20495;-59
2021/12/12 05:40:53;;;;;;;2.80;1.55;;;;;;;12.99;51.92;101830.09;4919248;29;20028;-58
2021/12/12 05:43:19;;;;;;;3.88;2.72;;;;;;;13.03;51.48;101842.34;4918325;29;20103;-59
2021/12/12 05:45:45;;;;;;;5.93;1.85;;;;;;;13.03;51.00;101834.28;4933926;29;20048;-58
2021/12/12 05:48:11;;;;;;;2.40;1.65;;;;;;;13.02;50.82;101840.63;4919594;29;20389;-58
2021/12/12 05:50:38;;;;;;;5.38;1.67;;;;;;;13.02;52.14;101834.38;4918937;29;20034;-58
2021/12/12 05:53:03;;;;;;;4.18;1.35;;;;;;;12.95;51.16;101815.22;4918499;29;20036;-59
2021/12/12 05:55:33;;;;;;;4.20;1.80;;;;;;;12.92;51.27;101815.44;4919146;29;20092;-58
2021/12/12 05:57:59;;;;;;;3.45;1.40;;;;;;;13.05;51.09;101829.63;4919572;29;20034;-58
2021/12/12 06:00:33;;;;;;;4.47;1.13;;;;;;;13.07;51.71;101832.19;4918916;29;20039;-59
2021/12/12 06:02:59;;;;;;;3.17;1.13;;;;;;;13.07;51.93;101838.47;4918865;29;20059;-59
2021/12/12 06:05:25;;;;;;;3.78;1.60;;;;;;;13.08;51.14;101845.56;4919083;29;20087;-59
2021/12/12 06:07:54;;;;;;;1.83;1.00;;;;;;;13.09;51.60;101836.50;4918808;29;20032;-59
2021/12/12 06:10:20;;;;;;;1.45;1.25;;;;;;;13.11;52.00;101845.31;4918869;29;20079;-58
2021/12/12 06:12:46;;;;;;;4.15;1.27;;;;;;;13.11;51.60;101849.84;4918871;29;20036;-59
2021/12/12 06:15:16;;;;;;;4.10;1.02;;;;;;;13.11;52.46;101848.03;4917815;29;20469;-59
2021/12/12 06:17:42;;;;;;;1.77;1.38;;;;;;;13.12;51.54;101857.78;4920824;29;20461;-59
2021/12/12 06:20:09;;;;;;;2.85;1.70;;;;;;;13.12;51.86;101855.09;4937993;28;20023;-58
2021/12/12 06:22:35;;;;;;;5.63;2.17;;;;;;;13.17;51.41;101861.00;4937709;29;20024;-59
2021/12/12 06:25:01;;;;;;;4.18;1.23;;;;;;;13.19;51.47;101864.41;4936392;29;20039;-58
2021/12/12 06:27:29;;;;;;;3.95;1.38;;;;;;;13.19;51.94;101867.09;4937629;29;20098;-59
2021/12/12 06:29:55;;;;;;;1.35;1.25;;;;;;;13.22;52.35;101866.84;4937741;29;20023;-58
2021/12/12 06:32:21;;;;;;;1.67;1.20;;;;;;;13.26;52.39;101875.56;4936621;29;20036;-59
2021/12/12 06:34:47;;;;;;;2.00;1.30;;;;;;;13.30;52.49;101872.50;4935558;28;20477;-58
2021/12/12 06:37:13;;;;;;;3.58;1.00;;;;;;;13.33;52.10;101869.56;4937048;29;20539;-59
2021/12/12 06:39:39;;;;;;;4.13;1.15;;;;;;;13.39;52.51;101877.16;4937496;29;20114;-59
2021/12/12 06:42:06;;;;;;;2.95;1.20;;;;;;;13.43;51.97;101866.16;4936374;29;20512;-58
2021/12/12 06:44:31;;;;;;;1.45;1.05;;;;;;;13.41;51.31;101872.50;4936251;29;20050;-59
2021/12/12 06:46:59;;;;;;;1.08;0.98;;;;;;;13.43;51.90;101880.44;4937352;29;20481;-59
2021/12/12 06:49:25;;;;;;;3.60;1.30;;;;;;;13.45;51.41;101880.34;4937705;28;20524;-59
2021/12/12 06:51:53;;;;;;;4.38;1.23;;;;;;;13.46;52.22;101887.41;4936075;29;20027;-59
2021/12/12 06:54:21;;;;;;;4.00;1.48;;;;;;;13.45;52.53;101880.34;4937664;28;20035;-58
2021/12/12 06:56:51;;;;;;;1.38;1.10;;;;;;;13.45;51.38;101880.34;4937429;29;20026;-58
2021/12/12 06:59:16;;;;;;;2.35;1.20;;;;;;;13.45;51.27;101885.72;4937227;29;20031;-58
2021/12/12 07:01:42;;;;;;;3.83;1.35;;;;;;;13.43;51.31;101889.38;4937182;29;20491;-59
2021/12/12 07:04:10;;;;;;;1.48;1.02;;;;;;;13.47;51.55;101889.13;4935667;29;20438;-59
2021/12/12 07:06:37;;;;;;;2.25;1.33;;;;;;;13.50;52.10;101896.97;4937416;28;20027;-58
2021/12/12 07:09:05;;;;;;;1.77;1.00;;;;;;;13.47;51.84;101898.06;4936969;29;20082;-58
2021/12/12 07:11:31;;;;;;;0.90;0.77;;;;;;;13.53;52.45;101899.41;4937017;29;20063;-58
2021/12/12 07:13:57;;;;;;;0.77;0.75;;;;;;;13.51;52.27;101891.47;4937218;29;20032;-58
2021/12/12 07:16:24;;;;;;;3.15;1.50;;;;;;;13.54;51.69;101895.75;4936694;29;20599;-58
2021/12/12 07:18:52;;;;;;;5.72;1.35;;;;;;;13.54;51.35;101893.91;4955782;29;20046;-58
2021/12/12 07:21:20;;;;;;;3.70;1.25;;;;;;;13.55;52.52;101892.06;4956097;29;20030;-58
2021/12/12 07:23:47;;;;;;;3.80;1.40;;;;;;;13.56;51.31;101891.09;4956333;29;20023;-58
2021/12/12 07:26:14;;;;;;;2.83;1.20;;;;;;;13.57;51.28;101896.34;4939399;29;20034;-58
2021/12/12 07:28:41;;;;;;;1.13;1.00;;;;;;;13.58;52.56;101890.00;4956215;29;20027;-59
2021/12/12 07:31:11;;;;;;;2.40;0.82;;;;;;;13.60;52.53;101889.84;4956564;29;20090;-58
2021/12/12 07:33:37;;;;;;;3.45;1.15;;;;;;;13.51;51.98;101896.88;4923948;29;20113;-57
2021/12/12 07:36:06;;;;;;;4.28;1.13;;;;;;;13.46;51.77;101884.72;4956433;29;20427;-58
2021/12/12 07:38:33;;;;;;;6.25;1.10;;;;;;;13.44;51.95;101892.94;4956452;29;20038;-58
2021/12/12 07:41:00;;;;;;;4.95;1.00;;;;;;;13.41;52.54;101893.16;4939615;29;20051;-58
2021/12/12 07:43:30;;;;;;;3.25;0.75;;;;;;;13.40;52.73;101889.59;4956210;29;20035;-57
2021/12/12 07:45:55;;;;;;;1.50;0.73;;;;;;;13.39;52.52;101887.91;4939210;29;20111;-57
2021/12/12 07:48:21;;;;;;;1.48;0.90;;;;;;;13.38;52.52;101891.56;4955813;29;20035;-59
2021/12/12 07:50:47;;;;;;;2.30;0.98;;;;;;;13.35;52.29;101889.13;4956012;29;20031;-58
2021/12/12 07:53:13;;;;;;;0.73;0.70;;;;;;;13.39;51.95;101898.69;4956052;29;20067;-57
2021/12/12 07:55:38;;;;;;;1.10;0.82;;;;;;;13.43;52.44;101909.22;4938889;29;20404;-58
2021/12/12 07:58:10;;;;;;;2.03;0.88;;;;;;;13.43;52.06;101902.81;4955927;29;20544;-58
2021/12/12 08:00:37;;;;;;;1.10;0.73;;;;;;;13.43;52.84;101897.44;4955553;29;20035;-58
2021/12/12 08:03:03;;;;;;;1.00;0.52;;;;;;;13.45;51.72;101908.09;4955632;29;20029;-58
2021/12/12 08:05:30;;;;;;;0.63;0.63;;;;;;;13.46;52.46;101908.94;4939887;29;20082;-58
2021/12/12 08:08:07;;;;;;;0.90;0.90;;;;;;;13.47;51.92;101907.97;4942368;29;20468;-58
2021/12/12 08:10:33;;;;;;;0.98;0.90;;;;;;;13.46;52.90;101909.81;4959538;29;20379;-59
2021/12/12 08:12:59;;;;;;;1.33;0.60;;;;;;;13.48;52.24;101924.03;4959195;29;20027;-58
2021/12/12 08:15:27;;;;;;;2.13;0.60;;;;;;;13.49;53.07;101922.16;4941986;29;20441;-57
2021/12/12 08:17:53;;;;;;;0.90;0.70;;;;;;;13.52;52.81;101919.22;4938604;29;20043;-58
2021/12/12 08:20:18;;;;;;;2.13;0.70;;;;;;;13.51;52.55;101926.47;4938686;29;20039;-58
2021/12/12 08:22:46;;;;;;;1.63;1.00;;;;;;;13.51;52.14;101918.41;4939661;28;20107;-58
2021/12/12 08:25:13;;;;;;;3.92;0.80;;;;;;;13.60;52.80;101927.53;4938675;29;20035;-58
2021/12/12 08:27:40;;;;;;;2.08;0.75;;;;;;;13.59;52.44;101921.34;4922824;29;20143;-59
2021/12/12 08:30:06;;;;;;;1.02;0.70;;;;;;;13.53;52.09;101907.50;4939966;28;20038;-58
2021/12/12 08:32:32;;;;;;;1.83;0.93;;;;;;;13.67;52.59;101928.78;4940017;29;20032;-58
2021/12/12 08:34:58;;;;;;;1.00;1.00;;;;;;;13.68;51.87;101930.53;4938856;29;20485;-58
2021/12/12 08:37:27;;;;;;;3.13;0.85;;;;;;;13.73;53.32;101933.69;4939789;29;20031;-58
2021/12/12 08:39:54;;;;;;;0.80;0.80;;;;;;;13.77;52.16;101940.53;4939654;29;20032;-59
2021/12/12 08:42:20;;;;;;;3.50;0.68;;;;;;;13.78;52.19;101940.44;4939849;29;20393;-58
2021/12/12 08:44:45;;;;;;;0.75;0.75;;;;;;;13.75;53.47;101931.72;4938350;29;20496;-58
2021/12/12 08:47:12;;;;;;;1.20;0.82;;;;;;;13.77;52.47;101937.84;4938367;29;20027;-59
2021/12/12 08:49:40;;;;;;;1.88;0.80;;;;;;;13.76;53.36;101933.44;4939556;28;20075;-58
2021/12/12 08:52:15;;;;;;;0.88;0.85;;;;;;;13.77;52.02;101940.53;4939296;29;20477;-59
2021/12/12 08:54:44;;;;;;;0.82;0.55;;;;;;;13.74;52.72;101941.63;4938129;28;20512;-59
2021/12/12 08:57:20;;;;;;;1.48;0.65;;;;;;;13.77;53.10;101940.53;4939606;29;20032;-59
2021/12/12 08:59:48;;;;;;;2.55;0.55;;;;;;;13.79;52.66;101954.75;4938983;29;20031;-58
2021/12/12 09:02:17;;;;;;;0.73;0.63;;;;;;;13.84;52.34;101952.53;4938896;28;20031;-58
2021/12/12 09:04:48;;;;;;;1.73;0.68;;;;;;;13.80;52.79;101937.59;4938865;29;20083;-58
2021/12/12 09:07:17;;;;;;;2.17;0.70;;;;;;;13.94;52.23;101958.91;4922093;29;20031;-58
2021/12/12 09:10:12;;;;;;;1.58;0.50;;;;;;;14.02;52.90;101957.31;4938035;29;20504;-58
2021/12/12 09:12:41;;;;;;;0.93;0.90;;;;;;;14.08;52.43;101955.94;4937873;29;20528;-58
2021/12/12 09:15:14;;;;;;;0.80;0.80;;;;;;;14.16;53.17;101958.88;4937601;29;20027;-59
2021/12/12 09:17:46;;;;;;;1.80;0.85;;;;;;;14.23;52.05;101954.72;4936843;29;20063;-58
2021/12/12 09:20:19;;;;;;;1.00;0.80;;;;;;;14.28;51.81;101955.19;4939161;29;20453;-59
2021/12/12 09:22:56;;;;;;;1.00;0.60;;;;;;;14.32;52.06;101964.75;4937864;29;20024;-58
2021/12/12 09:25:41;;;;;;;0.95;0.70;;;;;;;14.37;52.49;101961.69;4937741;29;20102;-58
2021/12/12 09:28:12;;;;;;;2.05;0.75;;;;;;;14.39;51.77;101965.97;4938388;28;20032;-59
2021/12/12 09:30:38;;;;;;;0.75;0.60;;;;;;;14.41;52.90;101964.00;4938506;29;20110;-58
2021/12/12 09:33:09;;;;;;;0.90;0.70;;;;;;;14.46;51.91;101980.66;4938554;29;20478;-59
2021/12/12 09:35:42;;;;;;;1.20;0.52;;;;;;;14.47;51.57;101984.22;4939253;29;20027;-58
2021/12/12 09:38:37;;;;;;;1.20;1.00;;;;;;;14.49;51.26;101977.72;4938745;29;20485;-58
2021/12/12 09:41:14;;;;;;;2.63;0.88;;;;;;;14.51;52.54;101986.56;4921431;29;20119;-59
2021/12/12 09:43:58;;;;;;;2.15;0.70;;;;;;;14.54;51.53;101986.28;4932753;29;20106;-58
2021/12/12 09:46:40;;;;;;;0.73;0.60;;;;;;;14.55;52.05;101977.22;4938375;29;20036;-59
2021/12/12 09:52:40;;;;;;;1.58;0.82;;;;;;;14.72;51.81;101983.91;4935972;29;20040;-58
2021/12/12 09:55:28;;;;;;;0.60;0.60;;;;;;;14.77;51.40;101992.47;4935945;29;20120;-59
2021/12/12 09:57:59;;;;;;;1.75;1.00;;;;;;;14.84;52.31;101996.38;4931709;29;20496;-58
2021/12/12 10:00:41;;;;;;;1.63;1.00;;;;;;;14.88;52.82;101989.72;4937239;29;20396;-58
2021/12/12 10:03:27;;;;;;;2.55;0.80;;;;;;;14.94;51.58;101999.13;4937936;29;20023;-58
2021/12/12 10:06:27;;;;;;;4.78;0.73;;;;;;;14.95;52.49;101995.47;4937768;29;20023;-59
2021/12/12 10:09:14;;;;;;;0.52;0.52;;;;;;;14.94;51.52;101989.22;4930193;29;20440;-58
2021/12/12 10:11:59;;;;;;;1.77;1.00;;;;;;;14.98;52.35;101995.22;4937334;29;20148;-58
2021/12/12 10:14:33;;;;;;;5.35;1.67;;;;;;;14.92;52.30;101979.53;4936803;29;20032;-58
2021/12/12 10:17:12;;;;;;;1.13;0.80;;;;;;;14.97;52.43;101993.50;4936377;29;20139;-59
2021/12/12 10:19:51;;;;;;;3.58;1.02;;;;;;;15.00;51.48;101995.94;4938325;29;20024;-59
2021/12/12 10:22:25;;;;;;;2.63;0.98;;;;;;;15.02;52.55;101992.13;4936634;29;20114;-58
2021/12/12 10:25:00;;;;;;;3.20;1.30;;;;;;;15.05;51.16;101991.00;4937009;29;20082;-59
2021/12/12 10:27:34;;;;;;;2.67;1.63;;;;;;;15.05;51.26;101985.59;4937839;28;20034;-58
2021/12/12 10:30:13;;;;;;;2.25;1.30;;;;;;;15.05;51.81;101991.00;4936174;29;20032;-58
2021/12/12 10:33:07;;;;;;;0.95;0.93;;;;;;;15.04;51.46;101990.16;4936727;29;20039;-58
2021/12/12 10:35:38;;;;;;;1.85;1.00;;;;;;;15.03;52.64;101992.97;4937713;29;20029;-59
2021/12/12 10:38:27;;;;;;;1.58;1.23;;;;;;;15.04;51.91;101989.31;4938115;28;20040;-58
2021/12/12 10:41:04;;;;;;;2.55;1.00;;;;;;;15.02;52.78;101988.56;4937528;29;20016;-58
2021/12/12 10:43:43;;;;;;;2.17;1.55;;;;;;;15.02;51.83;101980.47;4937621;29;20050;-59
2021/12/12 10:46:19;;;;;;;3.53;1.08;;;;;;;15.06;51.65;101984.63;4937915;29;20366;-59
2021/12/12 10:48:57;;;;;;;2.67;1.38;;;;;;;15.08;51.44;101979.94;4936705;29;20020;-59
2021/12/12 10:51:24;;;;;;;1.95;1.08;;;;;;;15.11;51.27;101990.50;4937773;28;20493;-58
2021/12/12 10:54:01;;;;;;;2.50;1.00;;;;;;;15.14;53.13;101979.44;4936681;29;20027;-58
2021/12/12 10:56:39;;;;;;;2.90;1.38;;;;;;;15.12;53.07;101976.88;4937630;29;20103;-58
2021/12/12 10:59:22;;;;;;;2.85;1.85;;;;;;;15.14;52.84;101984.84;4936552;29;20055;-59
2021/12/12 11:01:50;;;;;;;2.08;1.80;;;;;;;15.14;52.92;101976.72;4937556;29;20389;-59
2021/12/12 11:04:17;;;;;;;2.10;2.00;;;;;;;15.18;51.39;101985.44;4937304;29;20051;-59
2021/12/12 11:06:47;;;;;;;3.85;1.27;;;;;;;15.19;52.97;101982.59;4937513;29;20556;-65
2021/12/12 11:09:46;;;;;;;4.28;1.67;;;;;;;15.20;51.70;101986.16;4937539;29;20024;-59
2021/12/12 11:12:20;;;;;;;1.40;1.15;;;;;;;15.18;53.17;101986.28;4936366;29;20519;-59
2021/12/12 11:14:56;;;;;;;2.72;1.52;;;;;;;15.18;52.22;101983.59;4936585;29;20155;-58
2021/12/12 11:17:30;;;;;;;2.42;1.60;;;;;;;15.15;52.22;101978.47;4946408;28;20122;-59
2021/12/12 11:20:01;;;;;;;1.77;1.10;;;;;;;15.16;53.32;101980.16;4939180;29;20035;-59
2021/12/12 11:22:34;;;;;;;4.47;1.30;;;;;;;15.13;52.83;101978.56;4939684;29;20019;-58
2021/12/12 11:25:25;;;;;;;3.03;1.35;;;;;;;15.12;52.31;101976.00;4939326;29;20500;-59
2021/12/12 11:27:57;;;;;;;2.92;1.17;;;;;;;15.07;53.29;101975.56;4956562;29;20081;-58
2021/12/12 11:30:27;;;;;;;3.13;1.63;;;;;;;15.10;51.82;101983.41;4956310;29;20027;-59
2021/12/12 11:32:54;;;;;;;2.78;1.48;;;;;;;15.03;52.84;101979.50;4956203;29;20062;-59
2021/12/12 11:35:21;;;;;;;2.42;1.60;;;;;;;15.03;53.29;101976.78;4956359;29;20472;-59
2021/12/12 11:37:56;;;;;;;3.35;1.23;;;;;;;15.07;52.18;101983.66;4939135;29;20103;-58
2021/12/12 11:40:27;;;;;;;1.23;1.10;;;;;;;15.09;52.19;101973.56;4957300;28;20392;-59
2021/12/12 11:43:25;;;;;;;2.08;1.50;;;;;;;15.13;53.21;101980.44;4942916;29;20023;-58
2021/12/12 11:45:57;;;;;;;2.00;1.33;;;;;;;15.13;53.31;101983.97;4960469;29;20034;-59
2021/12/12 11:48:47;;;;;;;2.17;1.52;;;;;;;15.20;52.53;101987.00;4960225;29;20541;-59
2021/12/12 11:51:18;;;;;;;2.78;1.23;;;;;;;15.22;52.52;101990.44;4960082;29;20098;-59
2021/12/12 11:54:02;;;;;;;1.88;1.35;;;;;;;15.26;52.57;101988.34;4959769;29;20472;-58
2021/12/12 11:56:30;;;;;;;2.40;1.63;;;;;;;15.28;53.37;101984.50;4959550;29;20027;-59
2021/12/12 11:59:04;;;;;;;2.45;1.10;;;;;;;15.33;52.15;101987.66;4959899;29;20027;-60